sensor_id;sensor_type;location;lat;lon;timestamp;temperature;humidity
43607;DHT22;29197;44.788;10.366;2023-03-13T00:57:15;13.10;99.90
43607;DHT22;29197;44.788;10.366;2023-03-13T01:00:04;12.90;99.90
43607;DHT22;29197;44.788;10.366;2023-03-13T01:02:53;12.70;99.90
43607;DHT22;29197;44.788;10.366;2023-03-13T01:05:42;12.50;99.90
43607;DHT22;29197;44.788;10.366;2023-03-13T01:08:31;12.40;99.90
43607;DHT22;29197;44.788;10.366;2023-03-13T01:11:21;12.40;99.90
43607;DHT22;29197;44.788;10.366;2023-03-13T01:14:13;12.50;99.90
43607;DHT22;29197;44.788;10.366;2023-03-13T01:17:02;12.50;99.90
43607;DHT22;29197;44.788;10.366;2023-03-13T01:19:54;12.60;99.90
43607;DHT22;29197;44.788;10.366;2023-03-13T01:22:42;12.80;99.90
43607;DHT22;29197;44.788;10.366;2023-03-13T01:25:35;12.90;99.90
43607;DHT22;29197;44.788;10.366;2023-03-13T01:28:24;12.90;99.90
43607;DHT22;29197;44.788;10.366;2023-03-13T01:31:16;12.90;99.90
43607;DHT22;29197;44.788;10.366;2023-03-13T01:34:05;12.90;99.90
43607;DHT22;29197;44.788;10.366;2023-03-13T01:36:54;13.00;99.90
43607;DHT22;29197;44.788;10.366;2023-03-13T01:39:42;13.10;99.90
43607;DHT22;29197;44.788;10.366;2023-03-13T01:42:48;13.00;99.90
43607;DHT22;29197;44.788;10.366;2023-03-13T01:46:08;12.90;99.90
43607;DHT22;29197;44.788;10.366;2023-03-13T01:49:03;12.70;99.90
43607;DHT22;29197;44.788;10.366;2023-03-13T01:51:55;12.50;99.90
43607;DHT22;29197;44.788;10.366;2023-03-13T01:54:49;12.40;99.90
43607;DHT22;29197;44.788;10.366;2023-03-13T01:57:41;12.40;99.90
43607;DHT22;29197;44.788;10.366;2023-03-13T02:00:33;12.10;99.90
43607;DHT22;29197;44.788;10.366;2023-03-13T02:03:22;12.10;99.90
43607;DHT22;29197;44.788;10.366;2023-03-13T02:06:12;12.20;99.90
43607;DHT22;29197;44.788;10.366;2023-03-13T02:09:05;12.30;99.90
43607;DHT22;29197;44.788;10.366;2023-03-13T02:11:58;12.40;99.90
43607;DHT22;29197;44.788;10.366;2023-03-13T02:14:49;12.50;99.90
43607;DHT22;29197;44.788;10.366;2023-03-13T02:17:39;12.60;99.90
43607;DHT22;29197;44.788;10.366;2023-03-13T02:20:28;12.60;99.90
43607;DHT22;29197;44.788;10.366;2023-03-13T02:23:23;12.70;99.90
43607;DHT22;29197;44.788;10.366;2023-03-13T02:26:15;12.80;99.90
43607;DHT22;29197;44.788;10.366;2023-03-13T02:29:04;12.80;99.90
43607;DHT22;29197;44.788;10.366;2023-03-13T02:31:52;12.90;99.90
43607;DHT22;29197;44.788;10.366;2023-03-13T02:34:42;12.90;99.90
43607;DHT22;29197;44.788;10.366;2023-03-13T02:37:32;13.70;99.90
43607;DHT22;29197;44.788;10.366;2023-03-13T02:40:23;12.90;99.90
43607;DHT22;29197;44.788;10.366;2023-03-13T02:43:17;12.80;99.90
43607;DHT22;29197;44.788;10.366;2023-03-13T02:46:09;12.80;99.90
43607;DHT22;29197;44.788;10.366;2023-03-13T02:49:18;12.80;99.90
43607;DHT22;29197;44.788;10.366;2023-03-13T02:52:12;12.80;99.90
43607;DHT22;29197;44.788;10.366;2023-03-13T02:55:04;12.80;99.90
43607;DHT22;29197;44.788;10.366;2023-03-13T02:57:54;12.80;99.90
43607;DHT22;29197;44.788;10.366;2023-03-13T03:00:44;12.80;99.90
43607;DHT22;29197;44.788;10.366;2023-03-13T03:03:33;14.30;99.90
43607;DHT22;29197;44.788;10.366;2023-03-13T03:06:22;12.70;99.90
43607;DHT22;29197;44.788;10.366;2023-03-13T03:09:10;12.70;99.90
43607;DHT22;29197;44.788;10.366;2023-03-13T03:11:59;12.60;99.90
43607;DHT22;29197;44.788;10.366;2023-03-13T03:14:47;12.60;99.90
43607;DHT22;29197;44.788;10.366;2023-03-13T03:17:37;12.60;99.90
43607;DHT22;29197;44.788;10.366;2023-03-13T03:20:26;12.60;99.90
43607;DHT22;29197;44.788;10.366;2023-03-13T03:23:14;12.50;99.90
43607;DHT22;29197;44.788;10.366;2023-03-13T03:26:04;12.50;99.90
43607;DHT22;29197;44.788;10.366;2023-03-13T03:28:53;12.50;99.90
43607;DHT22;29197;44.788;10.366;2023-03-13T03:31:42;12.50;99.90
43607;DHT22;29197;44.788;10.366;2023-03-13T03:34:32;12.50;99.90
43607;DHT22;29197;44.788;10.366;2023-03-13T03:37:20;12.40;99.90
43607;DHT22;29197;44.788;10.366;2023-03-13T03:40:10;12.50;99.90
43607;DHT22;29197;44.788;10.366;2023-03-13T03:42:59;12.50;99.90
43607;DHT22;29197;44.788;10.366;2023-03-13T03:45:47;12.40;99.90
43607;DHT22;29197;44.788;10.366;2023-03-13T03:48:36;12.40;99.90
43607;DHT22;29197;44.788;10.366;2023-03-13T03:51:26;12.30;99.90
43607;DHT22;29197;44.788;10.366;2023-03-13T03:54:14;12.30;99.90
43607;DHT22;29197;44.788;10.366;2023-03-13T03:57:03;12.20;99.90
43607;DHT22;29197;44.788;10.366;2023-03-13T03:59:51;12.50;99.90
43607;DHT22;29197;44.788;10.366;2023-03-13T04:02:40;12.10;99.90
43607;DHT22;29197;44.788;10.366;2023-03-13T04:05:28;12.10;99.90
43607;DHT22;29197;44.788;10.366;2023-03-13T04:08:18;12.10;99.90
43607;DHT22;29197;44.788;10.366;2023-03-13T04:11:07;12.10;99.90
43607;DHT22;29197;44.788;10.366;2023-03-13T04:13:55;12.10;99.90
43607;DHT22;29197;44.788;10.366;2023-03-13T04:16:44;12.00;99.90
43607;DHT22;29197;44.788;10.366;2023-03-13T04:19:33;11.90;99.90
43607;DHT22;29197;44.788;10.366;2023-03-13T04:22:21;11.50;99.90
43607;DHT22;29197;44.788;10.366;2023-03-13T04:25:11;11.50;99.90
43607;DHT22;29197;44.788;10.366;2023-03-13T04:27:59;11.80;99.90
43607;DHT22;29197;44.788;10.366;2023-03-13T04:30:48;11.70;99.90
43607;DHT22;29197;44.788;10.366;2023-03-13T04:33:36;11.80;99.90
43607;DHT22;29197;44.788;10.366;2023-03-13T04:36:25;11.80;99.90
43607;DHT22;29197;44.788;10.366;2023-03-13T04:39:13;11.80;99.90
43607;DHT22;29197;44.788;10.366;2023-03-13T04:42:03;11.80;99.90
43607;DHT22;29197;44.788;10.366;2023-03-13T04:44:52;12.00;99.90
43607;DHT22;29197;44.788;10.366;2023-03-13T04:47:40;11.90;99.90
43607;DHT22;29197;44.788;10.366;2023-03-13T04:50:29;11.90;99.90
43607;DHT22;29197;44.788;10.366;2023-03-13T04:53:17;11.90;99.90
43607;DHT22;29197;44.788;10.366;2023-03-13T04:56:06;11.70;99.90
43607;DHT22;29197;44.788;10.366;2023-03-13T04:58:56;11.90;99.90
43607;DHT22;29197;44.788;10.366;2023-03-13T05:01:44;11.90;99.90
43607;DHT22;29197;44.788;10.366;2023-03-13T05:04:33;11.10;99.90
43607;DHT22;29197;44.788;10.366;2023-03-13T05:07:21;11.40;99.90
43607;DHT22;29197;44.788;10.366;2023-03-13T05:10:10;11.60;99.90
43607;DHT22;29197;44.788;10.366;2023-03-13T05:12:59;11.70;99.90
43607;DHT22;29197;44.788;10.366;2023-03-13T05:15:48;11.80;99.90
43607;DHT22;29197;44.788;10.366;2023-03-13T05:18:37;11.90;99.90
43607;DHT22;29197;44.788;10.366;2023-03-13T05:21:26;12.00;99.90
43607;DHT22;29197;44.788;10.366;2023-03-13T05:24:14;11.90;99.90
43607;DHT22;29197;44.788;10.366;2023-03-13T05:27:03;11.90;99.90
43607;DHT22;29197;44.788;10.366;2023-03-13T05:29:51;12.00;99.90
43607;DHT22;29197;44.788;10.366;2023-03-13T05:32:41;12.10;99.90
43607;DHT22;29197;44.788;10.366;2023-03-13T05:35:30;12.10;99.90
43607;DHT22;29197;44.788;10.366;2023-03-13T05:38:18;12.10;99.90
43607;DHT22;29197;44.788;10.366;2023-03-13T05:41:07;12.20;99.90
43607;DHT22;29197;44.788;10.366;2023-03-13T05:43:55;12.30;99.90
43607;DHT22;29197;44.788;10.366;2023-03-13T05:46:44;12.30;99.90
43607;DHT22;29197;44.788;10.366;2023-03-13T05:49:34;12.40;99.90
43607;DHT22;29197;44.788;10.366;2023-03-13T05:52:22;12.40;99.90
43607;DHT22;29197;44.788;10.366;2023-03-13T05:55:11;12.40;99.90
43607;DHT22;29197;44.788;10.366;2023-03-13T05:57:59;12.40;99.90
43607;DHT22;29197;44.788;10.366;2023-03-13T06:00:48;12.40;99.90
43607;DHT22;29197;44.788;10.366;2023-03-13T06:03:36;12.50;99.90
43607;DHT22;29197;44.788;10.366;2023-03-13T06:06:26;12.50;99.90
43607;DHT22;29197;44.788;10.366;2023-03-13T06:09:15;12.60;99.90
43607;DHT22;29197;44.788;10.366;2023-03-13T06:12:04;12.50;99.90
43607;DHT22;29197;44.788;10.366;2023-03-13T06:14:52;12.50;99.90
43607;DHT22;29197;44.788;10.366;2023-03-13T06:17:41;12.60;99.90
43607;DHT22;29197;44.788;10.366;2023-03-13T06:20:29;12.50;99.90
43607;DHT22;29197;44.788;10.366;2023-03-13T06:23:19;12.50;99.90
43607;DHT22;29197;44.788;10.366;2023-03-13T06:26:07;12.40;99.90
43607;DHT22;29197;44.788;10.366;2023-03-13T06:28:56;12.30;99.90
43607;DHT22;29197;44.788;10.366;2023-03-13T06:31:44;12.30;99.90
43607;DHT22;29197;44.788;10.366;2023-03-13T06:34:33;12.30;99.90
43607;DHT22;29197;44.788;10.366;2023-03-13T06:37:22;12.20;99.90
43607;DHT22;29197;44.788;10.366;2023-03-13T06:40:12;12.40;99.90
43607;DHT22;29197;44.788;10.366;2023-03-13T06:43:01;12.60;99.90
43607;DHT22;29197;44.788;10.366;2023-03-13T06:45:49;12.60;99.90
43607;DHT22;29197;44.788;10.366;2023-03-13T06:48:38;12.60;99.90
43607;DHT22;29197;44.788;10.366;2023-03-13T06:51:26;12.50;99.90
43607;DHT22;29197;44.788;10.366;2023-03-13T06:54:14;12.50;99.90
43607;DHT22;29197;44.788;10.366;2023-03-13T06:57:04;12.60;99.90
43607;DHT22;29197;44.788;10.366;2023-03-13T06:59:53;11.70;99.90
43607;DHT22;29197;44.788;10.366;2023-03-13T07:02:41;12.70;99.90
43607;DHT22;29197;44.788;10.366;2023-03-13T07:05:30;12.80;99.90
43607;DHT22;29197;44.788;10.366;2023-03-13T07:08:18;12.90;99.90
43607;DHT22;29197;44.788;10.366;2023-03-13T07:11:15;13.00;99.90
43607;DHT22;29197;44.788;10.366;2023-03-13T07:14:05;13.00;99.90
43607;DHT22;29197;44.788;10.366;2023-03-13T07:17:03;13.10;99.90
43607;DHT22;29197;44.788;10.366;2023-03-13T07:19:51;13.00;99.90
43607;DHT22;29197;44.788;10.366;2023-03-13T07:22:40;13.10;99.90
43607;DHT22;29197;44.788;10.366;2023-03-13T07:25:28;13.10;99.90
43607;DHT22;29197;44.788;10.366;2023-03-13T07:28:17;13.20;99.90
43607;DHT22;29197;44.788;10.366;2023-03-13T07:31:10;13.20;99.90
43607;DHT22;29197;44.788;10.366;2023-03-13T07:33:59;13.20;99.90
43607;DHT22;29197;44.788;10.366;2023-03-13T07:36:47;13.30;99.90
43607;DHT22;29197;44.788;10.366;2023-03-13T07:39:36;13.50;99.90
43607;DHT22;29197;44.788;10.366;2023-03-13T07:42:24;13.50;99.90
43607;DHT22;29197;44.788;10.366;2023-03-13T07:45:13;13.60;99.90
43607;DHT22;29197;44.788;10.366;2023-03-13T07:51:23;13.70;99.90
43607;DHT22;29197;44.788;10.366;2023-03-13T07:54:28;13.80;99.90
43607;DHT22;29197;44.788;10.366;2023-03-13T07:57:17;13.90;99.90
43607;DHT22;29197;44.788;10.366;2023-03-13T08:00:07;14.10;99.90
43607;DHT22;29197;44.788;10.366;2023-03-13T08:03:03;13.10;99.90
43607;DHT22;29197;44.788;10.366;2023-03-13T08:05:57;14.40;99.90
43607;DHT22;29197;44.788;10.366;2023-03-13T08:08:46;14.40;99.90
43607;DHT22;29197;44.788;10.366;2023-03-13T08:11:36;14.50;99.90
43607;DHT22;29197;44.788;10.366;2023-03-13T08:14:26;14.40;99.90
43607;DHT22;29197;44.788;10.366;2023-03-13T08:17:15;14.30;99.90
43607;DHT22;29197;44.788;10.366;2023-03-13T08:20:06;14.30;99.90
43607;DHT22;29197;44.788;10.366;2023-03-13T08:22:56;14.20;99.90
43607;DHT22;29197;44.788;10.366;2023-03-13T08:25:45;14.40;99.90
43607;DHT22;29197;44.788;10.366;2023-03-13T08:28:34;14.20;99.90
43607;DHT22;29197;44.788;10.366;2023-03-13T08:31:24;14.10;99.90
43607;DHT22;29197;44.788;10.366;2023-03-13T08:34:14;14.20;99.90
43607;DHT22;29197;44.788;10.366;2023-03-13T08:37:04;14.30;99.90
43607;DHT22;29197;44.788;10.366;2023-03-13T08:39:52;14.40;99.90
43607;DHT22;29197;44.788;10.366;2023-03-13T08:42:42;14.30;99.90
43607;DHT22;29197;44.788;10.366;2023-03-13T08:45:31;14.40;99.90
43607;DHT22;29197;44.788;10.366;2023-03-13T08:48:19;14.50;99.90
43607;DHT22;29197;44.788;10.366;2023-03-13T08:51:09;14.50;99.90
43607;DHT22;29197;44.788;10.366;2023-03-13T08:54:00;14.50;99.90
43607;DHT22;29197;44.788;10.366;2023-03-13T08:56:49;14.60;99.90
43607;DHT22;29197;44.788;10.366;2023-03-13T08:59:38;14.80;99.90
43607;DHT22;29197;44.788;10.366;2023-03-13T09:02:26;14.90;99.90
43607;DHT22;29197;44.788;10.366;2023-03-13T09:05:15;15.00;99.90
43607;DHT22;29197;44.788;10.366;2023-03-13T09:08:03;15.20;99.90
43607;DHT22;29197;44.788;10.366;2023-03-13T09:10:58;15.30;99.90
43607;DHT22;29197;44.788;10.366;2023-03-13T09:13:49;15.40;99.90
43607;DHT22;29197;44.788;10.366;2023-03-13T09:16:38;15.40;99.90
43607;DHT22;29197;44.788;10.366;2023-03-13T09:19:26;15.50;99.90
43607;DHT22;29197;44.788;10.366;2023-03-13T09:22:15;15.60;99.90
43607;DHT22;29197;44.788;10.366;2023-03-13T09:25:04;15.60;99.90
43607;DHT22;29197;44.788;10.366;2023-03-13T09:27:54;15.70;99.90
43607;DHT22;29197;44.788;10.366;2023-03-13T09:30:42;15.70;99.90
43607;DHT22;29197;44.788;10.366;2023-03-13T09:33:31;15.70;99.90
43607;DHT22;29197;44.788;10.366;2023-03-13T09:36:20;15.80;99.90
43607;DHT22;29197;44.788;10.366;2023-03-13T09:39:09;15.80;99.90
43607;DHT22;29197;44.788;10.366;2023-03-13T09:42:02;15.80;99.90
43607;DHT22;29197;44.788;10.366;2023-03-13T09:45:00;15.70;99.90
43607;DHT22;29197;44.788;10.366;2023-03-13T09:47:53;15.80;99.90
43607;DHT22;29197;44.788;10.366;2023-03-13T09:50:49;15.90;99.90
43607;DHT22;29197;44.788;10.366;2023-03-13T09:53:44;15.80;99.90
43607;DHT22;29197;44.788;10.366;2023-03-13T09:56:39;15.90;99.90
43607;DHT22;29197;44.788;10.366;2023-03-13T10:02:38;15.90;99.90
43607;DHT22;29197;44.788;10.366;2023-03-13T10:05:28;15.80;99.90
43607;DHT22;29197;44.788;10.366;2023-03-13T10:08:19;15.80;99.90
43607;DHT22;29197;44.788;10.366;2023-03-13T10:11:11;15.80;99.90
43607;DHT22;29197;44.788;10.366;2023-03-13T10:14:08;15.80;99.90
43607;DHT22;29197;44.788;10.366;2023-03-13T10:17:04;15.70;99.90
43607;DHT22;29197;44.788;10.366;2023-03-13T10:20:00;15.70;99.90
43607;DHT22;29197;44.788;10.366;2023-03-13T10:22:56;15.70;99.90
43607;DHT22;29197;44.788;10.366;2023-03-13T10:25:46;15.80;99.90
43607;DHT22;29197;44.788;10.366;2023-03-13T10:28:35;15.80;99.90
43607;DHT22;29197;44.788;10.366;2023-03-13T10:31:27;15.90;99.90
43607;DHT22;29197;44.788;10.366;2023-03-13T10:34:19;16.00;99.90
43607;DHT22;29197;44.788;10.366;2023-03-13T10:37:11;16.30;99.90
43607;DHT22;29197;44.788;10.366;2023-03-13T10:40:18;16.30;99.90
43607;DHT22;29197;44.788;10.366;2023-03-13T10:43:14;16.60;99.90
43607;DHT22;29197;44.788;10.366;2023-03-13T10:46:07;16.90;99.90
43607;DHT22;29197;44.788;10.366;2023-03-13T10:48:58;17.00;99.90
43607;DHT22;29197;44.788;10.366;2023-03-13T10:51:49;17.30;99.90
43607;DHT22;29197;44.788;10.366;2023-03-13T10:54:40;17.60;99.90
43607;DHT22;29197;44.788;10.366;2023-03-13T10:57:34;17.90;99.90
43607;DHT22;29197;44.788;10.366;2023-03-13T11:00:33;17.90;99.90
43607;DHT22;29197;44.788;10.366;2023-03-13T11:03:25;17.90;99.90
43607;DHT22;29197;44.788;10.366;2023-03-13T11:06:24;17.80;99.90
43607;DHT22;29197;44.788;10.366;2023-03-13T11:09:15;17.80;99.90
43607;DHT22;29197;44.788;10.366;2023-03-13T11:12:09;17.70;99.90
43607;DHT22;29197;44.788;10.366;2023-03-13T11:15:00;17.50;99.90
43607;DHT22;29197;44.788;10.366;2023-03-13T11:17:53;17.40;99.90
43607;DHT22;29197;44.788;10.366;2023-03-13T11:32:19;17.80;99.90
43607;DHT22;29197;44.788;10.366;2023-03-13T11:35:29;18.00;99.90
43607;DHT22;29197;44.788;10.366;2023-03-13T11:38:27;18.30;99.90
43607;DHT22;29197;44.788;10.366;2023-03-13T11:41:36;18.60;99.90
43607;DHT22;29197;44.788;10.366;2023-03-13T11:44:40;18.90;99.90
43607;DHT22;29197;44.788;10.366;2023-03-13T11:47:40;19.10;99.90
43607;DHT22;29197;44.788;10.366;2023-03-13T11:50:42;19.30;99.90
43607;DHT22;29197;44.788;10.366;2023-03-13T11:53:45;19.40;99.90
43607;DHT22;29197;44.788;10.366;2023-03-13T11:56:38;19.60;99.90
43607;DHT22;29197;44.788;10.366;2023-03-13T11:59:36;19.90;99.90
43607;DHT22;29197;44.788;10.366;2023-03-13T12:02:33;20.10;99.90
43607;DHT22;29197;44.788;10.366;2023-03-13T12:05:24;20.30;99.90
43607;DHT22;29197;44.788;10.366;2023-03-13T12:08:18;20.30;99.90
43607;DHT22;29197;44.788;10.366;2023-03-13T12:11:14;20.50;99.90
43607;DHT22;29197;44.788;10.366;2023-03-13T12:14:10;20.70;99.90
43607;DHT22;29197;44.788;10.366;2023-03-13T12:19:54;21.00;99.90
43607;DHT22;29197;44.788;10.366;2023-03-13T12:22:51;21.00;99.90
43607;DHT22;29197;44.788;10.366;2023-03-13T12:25:46;21.10;99.90
43607;DHT22;29197;44.788;10.366;2023-03-13T12:28:40;21.30;99.90
43607;DHT22;29197;44.788;10.366;2023-03-13T12:31:33;21.50;99.90
43607;DHT22;29197;44.788;10.366;2023-03-13T12:34:29;21.60;99.90
43607;DHT22;29197;44.788;10.366;2023-03-13T12:37:25;21.60;99.90
43607;DHT22;29197;44.788;10.366;2023-03-13T12:40:22;21.40;99.90
43607;DHT22;29197;44.788;10.366;2023-03-13T12:43:17;21.00;99.90
43607;DHT22;29197;44.788;10.366;2023-03-13T12:46:25;20.60;99.90
43607;DHT22;29197;44.788;10.366;2023-03-13T12:53:03;19.90;99.90
43607;DHT22;29197;44.788;10.366;2023-03-13T13:04:41;18.90;99.90
43607;DHT22;29197;44.788;10.366;2023-03-13T13:07:32;18.80;99.90
43607;DHT22;29197;44.788;10.366;2023-03-13T13:10:22;18.60;99.90
43607;DHT22;29197;44.788;10.366;2023-03-13T13:13:28;18.60;99.90
43607;DHT22;29197;44.788;10.366;2023-03-13T13:16:19;18.60;99.90
43607;DHT22;29197;44.788;10.366;2023-03-13T13:19:46;18.50;99.90
43607;DHT22;29197;44.788;10.366;2023-03-13T13:22:48;18.60;99.90
43607;DHT22;29197;44.788;10.366;2023-03-13T13:25:39;18.60;99.90
43607;DHT22;29197;44.788;10.366;2023-03-13T13:28:34;18.60;99.90
43607;DHT22;29197;44.788;10.366;2023-03-13T13:31:46;18.90;99.90
43607;DHT22;29197;44.788;10.366;2023-03-13T13:34:55;19.00;99.90
43607;DHT22;29197;44.788;10.366;2023-03-13T13:37:48;18.90;99.90
43607;DHT22;29197;44.788;10.366;2023-03-13T13:40:36;18.80;99.90
43607;DHT22;29197;44.788;10.366;2023-03-13T13:43:29;19.00;99.90
43607;DHT22;29197;44.788;10.366;2023-03-13T13:46:22;19.20;99.90
43607;DHT22;29197;44.788;10.366;2023-03-13T14:07:02;20.40;99.90
43607;DHT22;29197;44.788;10.366;2023-03-13T14:09:59;20.50;99.90
43607;DHT22;29197;44.788;10.366;2023-03-13T14:18:32;21.30;99.90
43607;DHT22;29197;44.788;10.366;2023-03-13T14:21:22;21.50;99.90
43607;DHT22;29197;44.788;10.366;2023-03-13T14:24:14;21.40;99.90
43607;DHT22;29197;44.788;10.366;2023-03-13T14:27:15;21.30;99.90
43607;DHT22;29197;44.788;10.366;2023-03-13T14:32:55;20.60;99.90
43607;DHT22;29197;44.788;10.366;2023-03-13T14:35:44;20.50;99.90
43607;DHT22;29197;44.788;10.366;2023-03-13T14:38:33;20.30;99.90
43607;DHT22;29197;44.788;10.366;2023-03-13T14:44:21;20.30;99.90
43607;DHT22;29197;44.788;10.366;2023-03-13T14:47:20;20.10;99.90
43607;DHT22;29197;44.788;10.366;2023-03-13T15:27:50;18.30;99.90
43607;DHT22;29197;44.788;10.366;2023-03-13T15:30:39;18.30;99.90
43607;DHT22;29197;44.788;10.366;2023-03-13T15:33:28;18.30;99.90
43607;DHT22;29197;44.788;10.366;2023-03-13T15:36:18;18.30;99.90
43607;DHT22;29197;44.788;10.366;2023-03-13T15:39:12;18.30;99.90
43607;DHT22;29197;44.788;10.366;2023-03-13T15:42:01;18.40;99.90
43607;DHT22;29197;44.788;10.366;2023-03-13T15:44:49;18.40;99.90
43607;DHT22;29197;44.788;10.366;2023-03-13T15:47:38;18.30;99.90
43607;DHT22;29197;44.788;10.366;2023-03-13T15:50:26;18.40;99.90
43607;DHT22;29197;44.788;10.366;2023-03-13T15:53:20;18.30;99.90
43607;DHT22;29197;44.788;10.366;2023-03-13T22:54:48;15.60;99.90
43607;DHT22;29197;44.788;10.366;2023-03-13T22:57:38;15.60;99.90
43607;DHT22;29197;44.788;10.366;2023-03-13T23:00:27;15.50;99.90
43607;DHT22;29197;44.788;10.366;2023-03-13T23:03:16;15.40;99.90
43607;DHT22;29197;44.788;10.366;2023-03-13T23:06:05;15.40;99.90
43607;DHT22;29197;44.788;10.366;2023-03-13T23:08:54;15.40;99.90
43607;DHT22;29197;44.788;10.366;2023-03-13T23:11:42;15.40;99.90
43607;DHT22;29197;44.788;10.366;2023-03-13T23:14:32;15.30;99.90
43607;DHT22;29197;44.788;10.366;2023-03-13T23:17:21;15.30;99.90
43607;DHT22;29197;44.788;10.366;2023-03-13T23:20:11;15.30;99.90
43607;DHT22;29197;44.788;10.366;2023-03-13T23:23:00;15.30;99.90
43607;DHT22;29197;44.788;10.366;2023-03-13T23:25:48;15.40;99.90
43607;DHT22;29197;44.788;10.366;2023-03-13T23:28:38;15.40;99.90
43607;DHT22;29197;44.788;10.366;2023-03-13T23:31:28;14.30;99.90
43607;DHT22;29197;44.788;10.366;2023-03-13T23:34:16;15.40;99.90
43607;DHT22;29197;44.788;10.366;2023-03-13T23:37:08;15.30;99.90
43607;DHT22;29197;44.788;10.366;2023-03-13T23:39:56;15.30;99.90
43607;DHT22;29197;44.788;10.366;2023-03-13T23:42:45;15.30;99.90
43607;DHT22;29197;44.788;10.366;2023-03-13T23:45:36;15.30;99.90
43607;DHT22;29197;44.788;10.366;2023-03-13T23:48:26;15.20;99.90
43607;DHT22;29197;44.788;10.366;2023-03-13T23:51:14;15.20;99.90
43607;DHT22;29197;44.788;10.366;2023-03-13T23:54:03;15.20;99.90
43607;DHT22;29197;44.788;10.366;2023-03-13T23:56:51;14.90;99.90
43607;DHT22;29197;44.788;10.366;2023-03-13T23:59:40;15.20;99.90
